Time;durP1;ratioP1;P1;durP2;ratioP2;P2;SDS_P1;SDS_P2;PMS_P1;PMS_P2;Temp;Humidity;BMP_temperature;BMP_pressure;BME280_temperature;BME280_humidity;BME280_pressure;Samples;Min_cycle;Max_cycle;Signal;HPM_P1;HPM_P2
2021/10/16 00:01:50;;;;;;;1.10;0.50;;;9.10;99.90;;;;;;5006831;28;20130;-69
2021/10/16 00:04:18;;;;;;;2.05;0.70;;;9.10;99.90;;;;;;4995020;28;20390;-69
2021/10/16 00:06:45;;;;;;;2.28;1.15;;;9.10;99.90;;;;;;5005421;28;20165;-68
2021/10/16 00:09:12;;;;;;;0.77;0.50;;;9.10;99.90;;;;;;5007231;28;20106;-71
2021/10/16 00:11:39;;;;;;;0.82;0.57;;;9.10;99.90;;;;;;4999209;28;20042;-67
2021/10/16 00:14:06;;;;;;;1.92;0.50;;;9.20;99.90;;;;;;5001681;28;20073;-68
2021/10/16 00:16:33;;;;;;;3.83;1.20;;;9.20;99.90;;;;;;5003444;28;20074;-65
2021/10/16 00:19:00;;;;;;;1.42;0.82;;;9.20;99.90;;;;;;5005717;28;20636;-70
2021/10/16 00:21:27;;;;;;;1.33;0.45;;;9.20;99.90;;;;;;5008262;28;20385;-66
2021/10/16 00:23:54;;;;;;;6.75;0.50;;;9.10;99.90;;;;;;5005531;28;20322;-69
2021/10/16 00:26:21;;;;;;;1.65;0.80;;;9.10;99.90;;;;;;4997992;28;20092;-71
2021/10/16 00:28:47;;;;;;;3.33;0.93;;;9.10;99.90;;;;;;4975783;28;20050;-67
2021/10/16 00:31:14;;;;;;;2.45;0.75;;;9.10;99.90;;;;;;4981933;28;20112;-67
2021/10/16 00:33:41;;;;;;;0.50;0.30;;;9.10;99.90;;;;;;5012884;28;20046;-65
2021/10/16 00:36:08;;;;;;;1.38;0.63;;;9.10;99.90;;;;;;4998702;28;20101;-65
2021/10/16 00:38:35;;;;;;;0.57;0.25;;;9.10;99.90;;;;;;4985648;28;20088;-68
2021/10/16 00:41:02;;;;;;;0.73;0.30;;;9.20;99.90;;;;;;5005251;28;20132;-65
2021/10/16 00:43:29;;;;;;;0.55;0.52;;;9.10;99.90;;;;;;5003835;28;20062;-65
2021/10/16 00:45:56;;;;;;;1.70;0.73;;;9.20;99.90;;;;;;5006760;28;20046;-68
2021/10/16 00:48:23;;;;;;;3.90;0.68;;;9.10;99.90;;;;;;4997676;28;20149;-65
2021/10/16 00:50:51;;;;;;;3.75;0.80;;;9.10;99.90;;;;;;4988459;28;20070;-66
2021/10/16 00:53:18;;;;;;;2.58;0.90;;;9.10;99.90;;;;;;5004220;28;20050;-65
2021/10/16 00:55:48;;;;;;;1.20;0.52;;;9.10;99.90;;;;;;5007555;28;20068;-69
2021/10/16 00:58:17;;;;;;;1.20;0.60;;;9.10;99.90;;;;;;4990166;28;20581;-71
2021/10/16 01:00:45;;;;;;;4.13;0.82;;;9.10;99.90;;;;;;5006108;28;20045;-65
2021/10/16 01:03:13;;;;;;;1.55;0.38;;;9.20;99.90;;;;;;4992080;28;20054;-70
2021/10/16 01:05:41;;;;;;;1.50;0.40;;;9.10;99.90;;;;;;4986156;28;20050;-69
2021/10/16 01:08:10;;;;;;;1.38;0.60;;;9.10;99.90;;;;;;4976916;28;20061;-68
2021/10/16 01:10:38;;;;;;;1.08;0.30;;;9.00;99.90;;;;;;5012282;28;20045;-65
2021/10/16 01:13:06;;;;;;;3.08;0.65;;;9.00;99.90;;;;;;5008857;28;20521;-69
2021/10/16 01:15:33;;;;;;;0.30;0.17;;;9.00;99.90;;;;;;5004492;28;20038;-67
2021/10/16 01:18:01;;;;;;;1.02;0.73;;;9.00;99.90;;;;;;5002953;28;20046;-70
2021/10/16 01:20:30;;;;;;;5.38;0.57;;;9.00;99.90;;;;;;5007579;28;20077;-68
2021/10/16 01:22:59;;;;;;;2.28;0.60;;;9.00;99.90;;;;;;5009361;28;20454;-65
2021/10/16 01:25:26;;;;;;;1.30;0.88;;;9.00;99.90;;;;;;5004107;28;20517;-66
2021/10/16 01:27:55;;;;;;;0.55;0.35;;;9.00;99.90;;;;;;5009070;28;20057;-68
2021/10/16 01:30:24;;;;;;;1.98;0.55;;;9.10;99.90;;;;;;5006577;28;20132;-65
2021/10/16 01:32:50;;;;;;;1.25;0.40;;;9.10;99.90;;;;;;5002340;28;20045;-66
2021/10/16 01:35:18;;;;;;;0.65;0.65;;;9.10;99.90;;;;;;5004927;28;20145;-66
2021/10/16 01:37:47;;;;;;;0.10;0.10;;;9.10;99.90;;;;;;5008312;28;20069;-67
2021/10/16 01:40:18;;;;;;;2.53;0.50;;;9.10;99.90;;;;;;5009082;28;20045;-66
2021/10/16 01:42:48;;;;;;;2.47;0.98;;;9.10;99.90;;;;;;4990954;28;20050;-65
2021/10/16 01:45:19;;;;;;;2.15;0.30;;;9.10;99.90;;;;;;5008670;28;20042;-69
2021/10/16 01:47:54;;;;;;;2.20;0.43;;;9.10;99.90;;;;;;4975524;28;20066;-65
2021/10/16 01:50:39;;;;;;;0.77;0.32;;;9.10;99.90;;;;;;4987822;28;20053;-68
2021/10/16 01:53:13;;;;;;;0.22;0.15;;;9.10;99.90;;;;;;4990763;28;20443;-66
2021/10/16 01:55:47;;;;;;;1.38;0.63;;;9.10;99.90;;;;;;5010248;28;20391;-67
2021/10/16 01:58:21;;;;;;;0.32;0.30;;;9.10;99.90;;;;;;4987588;28;20057;-68
2021/10/16 02:01:09;;;;;;;1.25;0.70;;;9.10;99.90;;;;;;4999689;28;20137;-68
2021/10/16 02:03:37;;;;;;;3.38;0.82;;;9.20;99.90;;;;;;5004919;28;20165;-66
2021/10/16 02:06:08;;;;;;;1.45;0.38;;;9.20;99.90;;;;;;4983205;28;20147;-69
2021/10/16 02:08:43;;;;;;;0.80;0.52;;;9.10;99.90;;;;;;5003425;28;20050;-66
2021/10/16 02:11:10;;;;;;;0.95;0.60;;;9.00;99.90;;;;;;4988944;28;20046;-65
2021/10/16 02:13:47;;;;;;;0.98;0.30;;;9.00;99.90;;;;;;4991525;28;20160;-68
2021/10/16 02:16:14;;;;;;;2.28;0.30;;;9.10;99.90;;;;;;5005050;28;20131;-66
2021/10/16 02:18:53;;;;;;;0.88;0.40;;;9.10;99.90;;;;;;5009103;28;20073;-66
2021/10/16 02:21:21;;;;;;;0.32;0.20;;;9.10;99.90;;;;;;4989674;28;20042;-66
2021/10/16 02:23:51;;;;;;;1.30;0.40;;;9.10;99.90;;;;;;4988441;28;20676;-67
2021/10/16 02:26:19;;;;;;;0.20;0.20;;;9.10;99.90;;;;;;4994549;28;20081;-65
2021/10/16 02:28:49;;;;;;;0.52;0.30;;;9.00;99.90;;;;;;5002679;28;20164;-67
2021/10/16 02:31:24;;;;;;;0.55;0.30;;;9.00;99.90;;;;;;4991606;28;20626;-67
2021/10/16 02:33:54;;;;;;;0.50;0.28;;;9.10;99.90;;;;;;5006009;28;20042;-68
2021/10/16 02:36:26;;;;;;;0.45;0.20;;;9.00;99.90;;;;;;5002757;28;20237;-65
2021/10/16 02:38:53;;;;;;;1.95;0.25;;;9.00;99.90;;;;;;5000198;28;20078;-68
2021/10/16 02:41:19;;;;;;;1.25;0.77;;;9.10;99.90;;;;;;4988589;28;20054;-66
2021/10/16 02:43:46;;;;;;;0.50;0.30;;;9.00;99.90;;;;;;5007768;28;20108;-66
2021/10/16 02:46:15;;;;;;;1.70;0.40;;;9.00;99.90;;;;;;4988575;28;20045;-69
2021/10/16 02:48:42;;;;;;;0.85;0.60;;;9.10;99.90;;;;;;4974530;28;20129;-65
2021/10/16 02:51:09;;;;;;;1.05;0.57;;;9.00;99.90;;;;;;4985926;28;20388;-68
2021/10/16 02:53:36;;;;;;;1.10;0.85;;;9.00;99.90;;;;;;4989222;28;20045;-68
2021/10/16 02:56:08;;;;;;;1.02;0.77;;;9.00;99.90;;;;;;5005746;28;20096;-67
2021/10/16 02:58:35;;;;;;;5.60;1.00;;;8.90;99.90;;;;;;5006484;28;20049;-67
2021/10/16 03:01:02;;;;;;;2.00;0.47;;;8.80;99.90;;;;;;5008629;28;20049;-66
2021/10/16 03:03:29;;;;;;;2.15;0.47;;;8.80;99.90;;;;;;4989159;28;20053;-66
2021/10/16 03:05:57;;;;;;;1.92;0.50;;;8.80;99.90;;;;;;5007671;28;20444;-66
2021/10/16 03:08:24;;;;;;;3.50;0.70;;;8.70;99.90;;;;;;4983531;28;20495;-71
2021/10/16 03:10:51;;;;;;;1.95;0.77;;;8.70;99.90;;;;;;4980379;28;20045;-69
2021/10/16 03:13:30;;;;;;;2.17;1.00;;;8.70;99.90;;;;;;4987698;28;20763;-68
2021/10/16 03:15:56;;;;;;;0.82;0.60;;;8.70;99.90;;;;;;4989447;28;20050;-69
2021/10/16 03:18:23;;;;;;;2.95;1.02;;;8.70;99.90;;;;;;5001072;28;20038;-66
2021/10/16 03:20:51;;;;;;;2.20;0.40;;;8.60;99.90;;;;;;5004381;28;20043;-71
2021/10/16 03:23:18;;;;;;;2.85;0.98;;;8.60;99.90;;;;;;5002774;28;20037;-68
2021/10/16 03:25:46;;;;;;;1.77;0.65;;;8.60;99.90;;;;;;4989876;28;20105;-67
2021/10/16 03:28:13;;;;;;;1.70;1.20;;;8.50;99.90;;;;;;4979483;28;20554;-70
2021/10/16 03:30:40;;;;;;;1.15;0.45;;;8.40;99.90;;;;;;4981580;28;20049;-72
2021/10/16 03:33:07;;;;;;;2.72;0.70;;;8.40;99.90;;;;;;4987162;28;20054;-70
2021/10/16 03:35:35;;;;;;;2.80;1.00;;;8.40;99.90;;;;;;5003033;28;20045;-73
2021/10/16 03:38:04;;;;;;;1.95;1.00;;;8.40;99.90;;;;;;5006502;28;20056;-69
2021/10/16 03:40:31;;;;;;;2.92;1.38;;;8.40;99.90;;;;;;4977966;28;20053;-65
2021/10/16 03:43:02;;;;;;;1.30;0.82;;;8.40;99.90;;;;;;4995475;28;20042;-65
2021/10/16 03:45:29;;;;;;;3.88;0.90;;;8.30;99.90;;;;;;5008415;28;20046;-66
2021/10/16 03:47:56;;;;;;;4.30;1.10;;;8.30;99.90;;;;;;5004292;28;20201;-68
2021/10/16 03:50:23;;;;;;;0.63;0.60;;;8.30;99.90;;;;;;5004337;28;20046;-69
2021/10/16 03:52:50;;;;;;;2.28;1.40;;;8.30;99.90;;;;;;4986844;28;20527;-66
2021/10/16 03:55:17;;;;;;;2.13;0.90;;;8.20;99.90;;;;;;4989677;28;20046;-66
2021/10/16 03:57:44;;;;;;;5.75;1.02;;;8.20;99.90;;;;;;5005412;28;20053;-65
2021/10/16 04:00:19;;;;;;;3.83;1.00;;;8.20;99.90;;;;;;4985261;28;20050;-67
2021/10/16 04:02:53;;;;;;;2.45;0.65;;;8.20;99.90;;;;;;4987140;28;20042;-65
2021/10/16 04:05:23;;;;;;;5.70;1.10;;;8.20;99.90;;;;;;4990911;28;20724;-66
2021/10/16 04:07:50;;;;;;;1.15;0.63;;;8.30;99.90;;;;;;4984557;28;20096;-67
2021/10/16 04:10:17;;;;;;;1.63;1.15;;;8.30;99.90;;;;;;4986777;28;20042;-71
2021/10/16 04:12:44;;;;;;;1.20;0.63;;;8.20;99.90;;;;;;5004120;28;20049;-68
2021/10/16 04:15:11;;;;;;;8.07;0.95;;;8.20;99.90;;;;;;4987662;28;20054;-65
2021/10/16 04:17:38;;;;;;;1.65;0.70;;;8.20;99.90;;;;;;5006987;28;20101;-67
2021/10/16 04:20:06;;;;;;;4.03;0.65;;;8.20;99.90;;;;;;5005564;28;20042;-69
2021/10/16 04:22:41;;;;;;;1.67;0.82;;;8.20;99.90;;;;;;4997529;28;20112;-66
2021/10/16 04:25:09;;;;;;;3.03;1.65;;;8.20;99.90;;;;;;4987338;28;20687;-69
2021/10/16 04:27:37;;;;;;;2.17;0.80;;;8.20;99.90;;;;;;4986977;28;20042;-70
2021/10/16 04:30:26;;;;;;;;;;;8.30;99.90;;;;;;5004381;28;20050;-68
2021/10/16 04:32:53;;;;;;;2.30;0.82;;;8.20;99.90;;;;;;4986542;28;20318;-66
2021/10/16 04:35:20;;;;;;;1.88;0.90;;;8.20;99.90;;;;;;4989625;28;20037;-68
2021/10/16 04:37:47;;;;;;;4.78;0.82;;;8.30;99.90;;;;;;5003022;28;20379;-65
2021/10/16 04:40:18;;;;;;;1.42;0.70;;;8.30;99.90;;;;;;5002271;28;20068;-65
2021/10/16 04:42:48;;;;;;;1.02;0.50;;;8.30;99.90;;;;;;4986228;28;20042;-67
2021/10/16 04:45:15;;;;;;;2.90;0.85;;;8.30;99.90;;;;;;4987188;28;20124;-66
2021/10/16 04:47:42;;;;;;;2.10;0.75;;;8.30;99.90;;;;;;5005815;28;20054;-67
2021/10/16 04:50:11;;;;;;;1.65;0.85;;;8.30;99.90;;;;;;4986475;28;20054;-70
2021/10/16 04:52:41;;;;;;;1.88;0.45;;;8.30;99.90;;;;;;4988603;28;22007;-66
2021/10/16 04:55:11;;;;;;;1.27;0.85;;;8.20;99.90;;;;;;4989028;28;20061;-70
2021/10/16 04:57:38;;;;;;;3.80;0.80;;;8.20;99.90;;;;;;5005286;28;20053;-68
2021/10/16 05:00:06;;;;;;;1.90;0.95;;;8.20;99.90;;;;;;4989334;28;20050;-68
2021/10/16 05:02:37;;;;;;;0.85;0.70;;;8.20;99.90;;;;;;4997321;28;20463;-67
2021/10/16 05:05:05;;;;;;;3.30;1.27;;;8.20;99.90;;;;;;5000606;28;20145;-65
2021/10/16 05:07:32;;;;;;;5.30;0.70;;;8.30;99.90;;;;;;4987995;28;20045;-68
2021/10/16 05:10:04;;;;;;;1.15;0.68;;;8.40;99.90;;;;;;5000726;28;20096;-67
2021/10/16 05:12:31;;;;;;;2.60;0.90;;;8.30;99.90;;;;;;4991761;28;20392;-68
2021/10/16 05:14:58;;;;;;;2.63;1.50;;;8.40;99.90;;;;;;4989326;28;20076;-70
2021/10/16 05:17:25;;;;;;;3.92;0.90;;;8.40;99.90;;;;;;5006734;28;20058;-71
2021/10/16 05:19:53;;;;;;;5.13;1.00;;;8.40;99.90;;;;;;4981613;28;20123;-67
2021/10/16 05:22:20;;;;;;;7.20;1.20;;;8.40;99.90;;;;;;4973932;28;20069;-66
2021/10/16 05:24:48;;;;;;;2.88;0.90;;;8.40;99.90;;;;;;4984563;28;20038;-68
2021/10/16 05:27:15;;;;;;;3.33;1.00;;;8.40;99.90;;;;;;5012631;28;20403;-66
2021/10/16 05:29:42;;;;;;;3.42;0.93;;;8.40;99.90;;;;;;5000632;28;20053;-65
2021/10/16 05:32:10;;;;;;;3.47;1.13;;;8.40;99.90;;;;;;4990429;28;20046;-66
2021/10/16 05:34:37;;;;;;;3.50;1.02;;;8.40;99.90;;;;;;4986490;28;20048;-65
2021/10/16 05:37:07;;;;;;;1.83;0.82;;;8.40;99.90;;;;;;5000728;28;20120;-66
2021/10/16 05:39:35;;;;;;;2.03;1.52;;;8.50;99.90;;;;;;4987753;28;20056;-70
2021/10/16 05:42:03;;;;;;;2.95;1.10;;;8.40;99.90;;;;;;4986679;28;20077;-69
2021/10/16 05:44:30;;;;;;;7.43;1.73;;;8.40;99.90;;;;;;5007355;28;20486;-65
2021/10/16 05:47:00;;;;;;;4.80;1.27;;;8.40;99.90;;;;;;4991585;28;20111;-71
2021/10/16 05:49:27;;;;;;;4.40;2.83;;;8.40;99.90;;;;;;5007545;28;20057;-69
2021/10/16 05:51:54;;;;;;;3.25;0.80;;;8.40;99.90;;;;;;5009258;28;20049;-66
2021/10/16 05:54:21;;;;;;;5.40;1.20;;;8.30;99.90;;;;;;5006775;28;20087;-68
2021/10/16 05:56:48;;;;;;;10.10;1.75;;;8.30;99.90;;;;;;4991930;28;20053;-65
2021/10/16 05:59:15;;;;;;;5.22;1.30;;;8.30;99.90;;;;;;4989931;28;20399;-67
2021/10/16 06:01:43;;;;;;;4.25;1.08;;;8.40;99.90;;;;;;5007955;28;20044;-68
2021/10/16 06:04:10;;;;;;;9.00;2.55;;;8.40;99.90;;;;;;5012179;28;20537;-68
2021/10/16 06:06:38;;;;;;;5.82;1.67;;;8.40;99.90;;;;;;4992088;28;20365;-65
2021/10/16 06:09:05;;;;;;;6.38;1.63;;;8.40;99.90;;;;;;4990554;28;20156;-66
2021/10/16 06:11:33;;;;;;;4.03;2.25;;;8.30;99.90;;;;;;5001211;28;20045;-67
2021/10/16 06:14:00;;;;;;;7.88;1.00;;;8.40;99.90;;;;;;4982730;28;20125;-65
2021/10/16 06:16:27;;;;;;;7.53;1.63;;;8.30;99.90;;;;;;5001945;28;20042;-67
2021/10/16 06:18:54;;;;;;;3.60;1.58;;;8.30;99.90;;;;;;4990969;28;20048;-65
2021/10/16 06:21:21;;;;;;;8.20;1.60;;;8.30;99.90;;;;;;4991481;28;20074;-67
2021/10/16 06:23:48;;;;;;;8.70;2.03;;;8.30;99.90;;;;;;5004921;28;20049;-65
2021/10/16 06:26:30;;;;;;;6.95;1.77;;;8.40;99.90;;;;;;5001864;28;20495;-67
2021/10/16 06:28:57;;;;;;;12.60;2.22;;;8.40;99.90;;;;;;4990592;28;20084;-65
2021/10/16 06:31:23;;;;;;;5.78;1.65;;;8.40;99.90;;;;;;5011478;28;20058;-65
2021/10/16 06:33:51;;;;;;;7.95;2.40;;;8.40;99.90;;;;;;4992288;28;20176;-66
2021/10/16 06:36:17;;;;;;;5.43;1.75;;;8.50;99.90;;;;;;5006188;28;20475;-65
2021/10/16 06:38:48;;;;;;;;;;;8.50;99.90;;;;;;5009288;28;20058;-65
2021/10/16 06:41:15;;;;;;;6.47;1.60;;;8.60;99.90;;;;;;5002527;28;19995;-65
2021/10/16 06:44:05;;;;;;;5.07;1.80;;;8.60;99.90;;;;;;5008157;28;20636;-67
2021/10/16 06:46:50;;;;;;;11.68;2.05;;;8.60;99.90;;;;;;5003632;28;20283;-65
2021/10/16 06:49:22;;;;;;;7.03;2.33;;;8.60;99.90;;;;;;5008585;28;20045;-65
2021/10/16 06:51:50;;;;;;;7.07;1.63;;;8.60;99.90;;;;;;5001638;28;20038;-66
2021/10/16 06:54:17;;;;;;;9.05;2.05;;;8.60;99.90;;;;;;5004881;28;20112;-66
2021/10/16 06:56:46;;;;;;;4.10;2.25;;;8.60;99.90;;;;;;4988942;28;20048;-68
2021/10/16 06:59:15;;;;;;;12.63;2.15;;;8.70;99.90;;;;;;4991961;28;20042;-65
2021/10/16 07:01:42;;;;;;;8.27;2.30;;;8.70;99.90;;;;;;4991189;28;20041;-70
2021/10/16 07:04:19;;;;;;;9.77;2.42;;;8.70;99.90;;;;;;4989636;28;20050;-65
2021/10/16 07:06:51;;;;;;;11.82;1.55;;;8.70;99.90;;;;;;4990442;28;20048;-65
2021/10/16 07:09:24;;;;;;;6.28;2.30;;;8.80;99.90;;;;;;4992810;28;20455;-69
2021/10/16 07:11:51;;;;;;;10.50;2.38;;;8.70;99.90;;;;;;5010670;28;20046;-65
2021/10/16 07:14:18;;;;;;;11.63;1.88;;;8.80;99.90;;;;;;5004098;28;20064;-69
2021/10/16 07:16:47;;;;;;;6.15;1.98;;;8.80;99.90;;;;;;5000498;28;20053;-66
2021/10/16 07:19:15;;;;;;;5.90;1.98;;;8.80;99.90;;;;;;5007557;28;20072;-71
2021/10/16 07:21:41;;;;;;;10.23;2.35;;;8.80;99.90;;;;;;5008002;28;20069;-68
2021/10/16 07:24:09;;;;;;;7.20;1.45;;;8.80;99.90;;;;;;5004796;28;20111;-67
2021/10/16 07:26:36;;;;;;;5.97;1.67;;;8.80;99.90;;;;;;5007199;28;20038;-66
2021/10/16 07:29:03;;;;;;;5.85;2.05;;;8.80;99.90;;;;;;5002705;28;20127;-68
2021/10/16 07:31:30;;;;;;;6.65;2.03;;;8.80;99.90;;;;;;5003556;28;20070;-65
2021/10/16 07:33:59;;;;;;;5.72;1.58;;;8.80;99.90;;;;;;5005172;28;20444;-65
2021/10/16 07:36:38;;;;;;;6.38;2.17;;;8.90;99.90;;;;;;5003893;28;20507;-68
2021/10/16 07:39:07;;;;;;;10.35;1.58;;;8.90;99.90;;;;;;5004775;28;20044;-65
2021/10/16 07:41:35;;;;;;;8.82;1.83;;;8.90;99.90;;;;;;5005502;28;20042;-69
2021/10/16 07:44:04;;;;;;;7.50;2.45;;;9.00;99.90;;;;;;5002752;28;20119;-67
2021/10/16 07:46:31;;;;;;;8.52;2.38;;;9.00;99.90;;;;;;5010263;28;20119;-65
2021/10/16 07:48:58;;;;;;;5.72;1.77;;;9.00;99.90;;;;;;5005039;28;20045;-74
2021/10/16 07:51:25;;;;;;;9.02;2.53;;;9.00;99.90;;;;;;5006162;28;20045;-66
2021/10/16 07:53:52;;;;;;;8.85;2.75;;;9.00;99.90;;;;;;5005251;28;20153;-70
2021/10/16 07:56:19;;;;;;;9.45;3.83;;;9.00;99.90;;;;;;5004073;28;20068;-73
2021/10/16 07:58:46;;;;;;;5.55;2.58;;;8.90;99.90;;;;;;5014506;28;20045;-65
2021/10/16 08:01:13;;;;;;;10.82;2.25;;;8.90;99.90;;;;;;5008216;28;20042;-66
2021/10/16 08:03:40;;;;;;;6.70;1.90;;;9.00;99.90;;;;;;5009376;28;20038;-68
2021/10/16 08:06:07;;;;;;;5.95;1.63;;;9.00;99.90;;;;;;5008361;28;20041;-68
2021/10/16 08:08:34;;;;;;;12.20;2.28;;;9.00;99.90;;;;;;4990575;28;20064;-69
2021/10/16 08:11:01;;;;;;;8.75;2.47;;;9.00;99.90;;;;;;4986796;28;20056;-69
2021/10/16 08:13:30;;;;;;;15.25;3.47;;;9.00;99.90;;;;;;5007944;28;20046;-68
2021/10/16 08:15:58;;;;;;;9.32;2.42;;;9.00;99.90;;;;;;4988562;28;20072;-65
2021/10/16 08:18:25;;;;;;;9.15;2.50;;;9.00;99.90;;;;;;5007632;28;20149;-70
2021/10/16 08:20:52;;;;;;;9.05;1.85;;;9.00;99.90;;;;;;5005532;28;20085;-66
2021/10/16 08:23:19;;;;;;;10.55;1.98;;;9.00;99.90;;;;;;5013476;28;20432;-66
2021/10/16 08:25:47;;;;;;;6.82;2.72;;;9.00;99.90;;;;;;5006782;28;20128;-67
2021/10/16 08:28:14;;;;;;;6.18;1.85;;;9.00;99.90;;;;;;5005678;28;20097;-67
2021/10/16 08:30:50;;;;;;;11.68;3.10;;;9.10;99.90;;;;;;5000032;28;20400;-68
2021/10/16 08:33:21;;;;;;;9.45;1.92;;;9.10;99.90;;;;;;5001634;28;20037;-65
2021/10/16 08:35:49;;;;;;;8.00;3.63;;;9.20;99.90;;;;;;5013374;28;20545;-65
2021/10/16 08:38:16;;;;;;;9.68;1.98;;;9.20;99.90;;;;;;4999597;28;20041;-73
2021/10/16 08:40:44;;;;;;;8.38;2.03;;;9.20;99.90;;;;;;5004849;28;20049;-65
2021/10/16 08:43:11;;;;;;;12.80;2.90;;;9.30;99.90;;;;;;5005384;28;20080;-65
2021/10/16 08:45:38;;;;;;;8.20;2.00;;;9.30;99.90;;;;;;5007016;28;20058;-65
2021/10/16 08:48:06;;;;;;;9.85;2.13;;;9.30;99.90;;;;;;5006197;28;20065;-65
2021/10/16 08:50:35;;;;;;;13.73;3.13;;;9.30;99.90;;;;;;5004791;28;20558;-65
2021/10/16 08:53:03;;;;;;;10.90;3.08;;;9.30;99.90;;;;;;5007229;28;20073;-72
2021/10/16 08:55:30;;;;;;;11.82;2.13;;;9.30;99.90;;;;;;4987033;28;20034;-66
2021/10/16 08:57:57;;;;;;;7.25;2.40;;;9.40;99.90;;;;;;4986711;28;20089;-68
2021/10/16 09:00:52;;;;;;;8.43;2.00;;;9.40;99.90;;;;;;5006993;28;20128;-68
2021/10/16 09:03:30;;;;;;;7.32;3.08;;;9.50;99.90;;;;;;5006353;28;20124;-65
2021/10/16 09:06:13;;;;;;;7.97;2.85;;;9.40;99.90;;;;;;5004738;28;20041;-66
2021/10/16 09:08:41;;;;;;;5.78;2.25;;;9.40;99.90;;;;;;4987130;28;20054;-65
2021/10/16 09:11:29;;;;;;;7.63;2.40;;;9.40;99.90;;;;;;4981761;28;20061;-65
2021/10/16 09:14:07;;;;;;;9.30;2.30;;;9.40;99.90;;;;;;5003703;28;20062;-66
2021/10/16 09:17:01;;;;;;;10.02;2.05;;;9.50;99.90;;;;;;5004994;28;20042;-66
2021/10/16 09:19:31;;;;;;;10.48;2.92;;;9.40;99.90;;;;;;5005173;28;20152;-67
2021/10/16 09:22:01;;;;;;;;;;;9.50;99.90;;;;;;4987416;28;20131;-65
2021/10/16 09:24:43;;;;;;;10.85;2.03;;;9.50;99.90;;;;;;5003583;28;20425;-69
2021/10/16 09:27:25;;;;;;;8.93;1.38;;;9.60;99.90;;;;;;4990857;28;20058;-68
2021/10/16 09:30:00;;;;;;;15.18;2.92;;;9.60;99.90;;;;;;5008181;28;20041;-72
2021/10/16 09:32:28;;;;;;;12.55;2.38;;;9.60;99.90;;;;;;5008339;28;20061;-68
2021/10/16 09:35:00;;;;;;;16.38;4.88;;;9.60;99.90;;;;;;5007394;28;20348;-65
2021/10/16 09:37:27;;;;;;;7.82;3.00;;;9.70;99.90;;;;;;5008795;28;20615;-65
2021/10/16 09:39:56;;;;;;;4.72;1.92;;;9.70;99.90;;;;;;5008254;28;20133;-72
2021/10/16 09:42:29;;;;;;;10.52;4.95;;;9.70;99.90;;;;;;5008262;28;20700;-68
2021/10/16 09:45:03;;;;;;;8.20;2.28;;;9.70;99.90;;;;;;5003229;28;20196;-65
2021/10/16 09:47:29;;;;;;;8.32;3.00;;;9.80;99.90;;;;;;5005229;28;20104;-65
2021/10/16 09:50:02;;;;;;;7.03;1.75;;;9.80;99.90;;;;;;5009562;28;20041;-68
2021/10/16 09:52:42;;;;;;;10.27;2.65;;;9.80;99.90;;;;;;5006059;28;20116;-65
2021/10/16 09:55:12;;;;;;;19.70;3.08;;;9.80;99.90;;;;;;5011849;28;20200;-65
2021/10/16 09:57:43;;;;;;;6.30;1.93;;;9.80;99.90;;;;;;5008557;28;20445;-65
2021/10/16 10:00:11;;;;;;;8.15;2.92;;;9.90;99.90;;;;;;5012240;28;20096;-66
2021/10/16 10:02:39;;;;;;;7.65;3.47;;;10.00;99.90;;;;;;4989679;28;20161;-66
2021/10/16 10:05:08;;;;;;;13.63;3.38;;;10.00;99.90;;;;;;4959626;28;1267691;-65
2021/10/16 10:07:36;;;;;;;9.68;3.03;;;10.10;99.90;;;;;;5006191;28;20046;-64
2021/10/16 10:10:04;;;;;;;15.70;2.67;;;10.20;99.90;;;;;;5004874;28;20180;-73
2021/10/16 10:12:33;;;;;;;10.35;2.28;;;10.20;99.90;;;;;;5011425;28;20047;-70
2021/10/16 10:15:00;;;;;;;11.82;2.00;;;10.20;99.90;;;;;;5008659;28;20034;-67
2021/10/16 10:17:31;;;;;;;9.73;2.97;;;10.30;99.90;;;;;;5015572;28;20539;-67
2021/10/16 10:20:12;;;;;;;10.57;2.63;;;10.30;99.90;;;;;;5007696;28;20115;-66
2021/10/16 10:22:41;;;;;;;20.80;3.88;;;10.30;99.90;;;;;;5010201;28;20049;-65
2021/10/16 10:25:21;;;;;;;10.50;3.55;;;10.20;99.90;;;;;;5008271;28;20046;-65
2021/10/16 10:27:50;;;;;;;9.98;2.83;;;10.20;99.90;;;;;;5009423;28;20046;-67
2021/10/16 10:30:35;;;;;;;8.40;3.47;;;10.10;99.90;;;;;;5006739;28;20490;-65
2021/10/16 10:33:20;;;;;;;4.78;2.17;;;10.00;99.90;;;;;;5009197;28;20105;-71
2021/10/16 10:36:00;;;;;;;7.57;2.28;;;10.10;99.90;;;;;;5008453;28;20069;-69
2021/10/16 10:38:30;;;;;;;11.00;2.63;;;10.10;99.90;;;;;;5005516;28;20034;-65
2021/10/16 10:40:57;;;;;;;11.23;2.13;;;10.10;99.90;;;;;;5008661;28;20065;-68
2021/10/16 10:43:38;;;;;;;13.35;3.53;;;10.30;99.90;;;;;;5001688;28;20129;-68
2021/10/16 10:46:12;;;;;;;9.80;2.47;;;10.40;99.90;;;;;;5009359;28;20133;-68
2021/10/16 10:48:47;;;;;;;14.00;4.85;;;10.40;99.90;;;;;;4980527;28;20046;-66
2021/10/16 10:51:40;;;;;;;9.52;2.58;;;10.60;99.90;;;;;;5007398;28;20104;-66
2021/10/16 10:54:20;;;;;;;17.00;3.10;;;10.60;99.90;;;;;;5007389;28;20523;-65
2021/10/16 10:56:56;;;;;;;9.88;2.83;;;10.60;99.90;;;;;;5003734;28;20075;-69
2021/10/16 10:59:23;;;;;;;13.27;2.67;;;10.70;99.90;;;;;;5005536;28;20129;-66
2021/10/16 11:01:50;;;;;;;10.50;2.63;;;10.80;99.90;;;;;;5004321;28;20065;-66
2021/10/16 11:04:39;;;;;;;10.68;1.90;;;10.80;99.90;;;;;;4999656;28;20050;-66
2021/10/16 11:07:11;;;;;;;13.07;2.80;;;10.90;99.90;;;;;;5003503;28;20076;-72
2021/10/16 11:09:38;;;;;;;8.10;2.30;;;10.90;99.90;;;;;;5005944;28;20139;-77
2021/10/16 11:12:07;;;;;;;7.97;2.75;;;10.90;99.90;;;;;;5007199;28;20057;-73
2021/10/16 11:14:37;;;;;;;13.38;3.08;;;10.90;99.90;;;;;;5004503;28;20392;-69
2021/10/16 11:17:13;;;;;;;11.05;2.40;;;11.00;99.90;;;;;;5009330;28;20054;-74
2021/10/16 11:19:51;;;;;;;9.48;2.05;;;11.00;99.90;;;;;;5006435;28;20442;-67
2021/10/16 11:22:20;;;;;;;6.68;2.22;;;11.00;99.90;;;;;;5004360;28;20050;-70
2021/10/16 11:24:47;;;;;;;12.68;2.17;;;11.00;99.90;;;;;;5006005;28;20073;-70
2021/10/16 11:27:21;;;;;;;20.05;3.15;;;11.00;99.90;;;;;;5008398;28;20096;-69
2021/10/16 11:29:48;;;;;;;8.45;2.63;;;11.00;99.90;;;;;;4986652;28;20066;-66
2021/10/16 11:32:31;;;;;;;20.20;2.80;;;10.90;99.90;;;;;;3028458;28;10002901;-66
2021/10/16 11:35:04;;;;;;;9.45;3.53;;;11.00;99.90;;;;;;3966175;28;10001660;-69
2021/10/16 11:37:32;;;;;;;6.10;2.50;;;11.00;99.90;;;;;;5007808;28;20062;-66
2021/10/16 11:40:06;;;;;;;8.07;2.15;;;11.10;99.90;;;;;;5002042;28;20152;-66
2021/10/16 11:42:34;;;;;;;9.35;3.08;;;11.10;99.90;;;;;;5005950;28;20069;-66
2021/10/16 11:45:02;;;;;;;8.70;2.35;;;11.20;99.90;;;;;;5007434;28;20100;-66
2021/10/16 11:47:29;;;;;;;14.07;2.72;;;11.20;99.90;;;;;;5005453;28;20456;-66
2021/10/16 11:49:56;;;;;;;7.50;2.00;;;11.30;99.90;;;;;;5006948;28;20045;-68
2021/10/16 11:52:24;;;;;;;6.10;2.38;;;11.20;99.90;;;;;;5002142;28;20046;-66
2021/10/16 11:55:21;;;;;;;15.77;4.13;;;11.20;99.90;;;;;;5008502;28;20081;-68
2021/10/16 11:57:48;;;;;;;8.82;3.55;;;11.20;99.90;;;;;;5003412;28;20565;-67
2021/10/16 12:00:25;;;;;;;9.15;2.47;;;11.20;99.90;;;;;;5002676;28;20068;-68
2021/10/16 12:02:53;;;;;;;10.80;2.47;;;11.20;99.90;;;;;;5003510;28;20066;-66
2021/10/16 12:05:22;;;;;;;20.38;7.25;;;11.30;99.90;;;;;;5006256;28;20078;-66
2021/10/16 12:07:50;;;;;;;8.65;2.45;;;11.40;99.90;;;;;;5001138;28;20121;-67
2021/10/16 12:10:20;;;;;;;9.05;3.85;;;11.60;99.90;;;;;;4999207;28;20164;-65
2021/10/16 12:13:08;;;;;;;6.53;2.08;;;11.80;99.90;;;;;;4995830;28;20044;-76
2021/10/16 12:15:38;;;;;;;7.72;3.10;;;11.90;99.90;;;;;;4999313;28;20341;-66
2021/10/16 12:18:15;;;;;;;10.15;1.58;;;11.90;99.90;;;;;;5000332;28;20057;-67
2021/10/16 12:20:49;;;;;;;8.05;2.70;;;11.90;99.90;;;;;;5006610;28;20132;-69
2021/10/16 12:23:17;;;;;;;8.05;1.92;;;11.80;99.90;;;;;;5003143;28;20073;-72
2021/10/16 12:25:55;;;;;;;8.27;1.83;;;11.80;99.90;;;;;;5007070;28;20563;-66
2021/10/16 12:28:23;;;;;;;11.00;3.20;;;11.90;99.90;;;;;;5001204;28;20119;-68
2021/10/16 12:31:02;;;;;;;12.70;3.03;;;11.90;99.90;;;;;;5007600;28;20126;-66
2021/10/16 12:33:30;;;;;;;11.02;2.22;;;11.90;99.90;;;;;;5004512;28;20460;-65
2021/10/16 12:36:02;;;;;;;10.20;1.85;;;11.90;99.90;;;;;;5009171;28;20309;-70
2021/10/16 12:38:46;;;;;;;6.32;1.98;;;11.90;99.90;;;;;;5002345;28;20045;-70
2021/10/16 12:41:22;;;;;;;13.10;2.72;;;11.90;99.90;;;;;;5002750;28;20549;-66
2021/10/16 12:43:49;;;;;;;10.43;3.35;;;11.90;99.90;;;;;;4997955;28;20045;-67
2021/10/16 12:46:27;;;;;;;5.55;1.55;;;11.90;99.90;;;;;;5003250;28;20148;-68
2021/10/16 12:48:55;;;;;;;5.68;2.30;;;11.90;99.90;;;;;;4998990;28;20038;-69
2021/10/16 12:51:43;;;;;;;7.32;2.42;;;11.90;99.90;;;;;;5003483;28;20046;-66
2021/10/16 12:54:10;;;;;;;8.32;2.83;;;11.90;99.90;;;;;;4999727;28;20092;-65
2021/10/16 12:56:37;;;;;;;6.80;1.75;;;11.90;99.90;;;;;;5008330;28;20127;-68
2021/10/16 12:59:04;;;;;;;8.07;1.80;;;11.80;99.90;;;;;;5002988;28;20488;-69
2021/10/16 13:01:31;;;;;;;8.18;1.85;;;11.90;99.90;;;;;;5004132;28;20400;-66
2021/10/16 13:03:59;;;;;;;7.20;2.25;;;11.90;99.90;;;;;;5004387;28;20181;-66
2021/10/16 13:06:26;;;;;;;13.10;2.70;;;11.90;99.90;;;;;;5004650;28;20108;-67
2021/10/16 13:08:52;;;;;;;8.90;2.10;;;11.80;99.90;;;;;;5006516;28;20069;-70